Terminal Aerodrome Forecast
Issued by NWS Wilmington, OH

Current Version | Previous Version | Text Only | Print | Product List | Glossary Off
Versions: 1 2 3 4 5 6 7 8 9 10 11 12 13 14 15 16 17 18

510
FTUS41 KILN 272335
TAFILN
TAF
KILN 272335Z 2800/2824 15006KT P6SM OVC090
     FM280100 14006KT 5SM -SHRA VCTS OVC090CB
      TEMPO 2801/2805 2SM -SHRA OVC035
     FM280500 13006KT 5SM -SHRA BR OVC035
     FM280800 21008KT 4SM -SHRA BR OVC015
     FM281200 32005KT 3SM BR VCSH OVC008
     FM281400 33007KT P6SM OVC008
     FM282100 36009KT P6SM OVC015=

USA.gov is the U.S. government's official web portal to all federal, state and local government web resources and services.